createdAt,value
2022-11-10T00:02:25.916Z,100.00
2022-11-10T00:04:53.453Z,100.00
2022-11-10T00:07:25.521Z,100.00
2022-11-10T00:09:53.349Z,100.00
2022-11-10T00:12:21.556Z,100.00
2022-11-10T00:15:06.962Z,100.00
2022-11-10T00:17:36.922Z,100.00
2022-11-10T00:20:05.947Z,100.00
2022-11-10T00:22:36.109Z,100.00
2022-11-10T00:25:04.262Z,100.00
2022-11-10T00:27:33.033Z,100.00
2022-11-10T00:30:00.831Z,100.00
2022-11-10T00:32:28.397Z,100.00
2022-11-10T00:34:56.013Z,100.00
2022-11-10T00:37:23.564Z,100.00
2022-11-10T00:39:52.502Z,100.00
2022-11-10T00:42:20.103Z,100.00
2022-11-10T00:44:47.627Z,100.00
2022-11-10T00:47:15.169Z,100.00
2022-11-10T00:49:42.703Z,100.00
2022-11-10T00:52:10.295Z,100.00
2022-11-10T00:54:37.866Z,100.00
2022-11-10T00:57:06.818Z,100.00
2022-11-10T00:59:34.395Z,100.00
2022-11-10T01:02:01.925Z,100.00
2022-11-10T01:04:29.502Z,100.00
2022-11-10T01:06:57.072Z,100.00
2022-11-10T01:09:24.694Z,100.00
2022-11-10T01:11:52.246Z,100.00
2022-11-10T01:14:21.110Z,100.00
2022-11-10T01:16:48.665Z,100.00
2022-11-10T01:19:16.164Z,100.00
2022-11-10T01:21:43.737Z,100.00
2022-11-10T01:24:11.285Z,100.00
2022-11-10T01:26:38.857Z,100.00
2022-11-10T01:29:06.386Z,100.00
2022-11-10T01:31:35.263Z,100.00
2022-11-10T01:34:02.861Z,100.00
2022-11-10T01:36:30.437Z,100.00
2022-11-10T01:38:57.996Z,100.00
2022-11-10T01:41:25.597Z,100.00
2022-11-10T01:43:53.160Z,100.00
2022-11-10T01:46:20.728Z,100.00
2022-11-10T01:48:52.413Z,100.00
2022-11-10T01:51:21.984Z,100.00
2022-11-10T01:53:52.362Z,100.00
2022-11-10T01:56:20.122Z,100.00
2022-11-10T01:59:03.299Z,100.00
2022-11-10T02:01:31.696Z,100.00
2022-11-10T02:04:02.630Z,100.00
2022-11-10T02:06:31.902Z,100.00
2022-11-10T02:08:59.621Z,100.00
2022-11-10T02:11:27.658Z,100.00
2022-11-10T02:13:55.518Z,100.00
2022-11-10T02:16:23.270Z,100.00
2022-11-10T02:18:51.004Z,100.00
2022-11-10T02:21:20.832Z,100.00
2022-11-10T02:23:50.536Z,100.00
2022-11-10T02:26:20.644Z,100.00
2022-11-10T02:28:48.280Z,100.00
2022-11-10T02:31:16.191Z,100.00
2022-11-10T02:33:44.240Z,100.00
2022-11-10T02:36:12.083Z,100.00
2022-11-10T02:38:41.171Z,100.00
2022-11-10T02:41:08.738Z,100.00
2022-11-10T02:43:37.575Z,100.00
2022-11-10T02:46:05.206Z,100.00
2022-11-10T02:48:32.775Z,100.00
2022-11-10T02:51:00.418Z,100.00
2022-11-10T02:53:27.956Z,100.00
2022-11-10T02:55:56.819Z,100.00
2022-11-10T02:58:24.390Z,100.00
2022-11-10T03:00:52.047Z,100.00
2022-11-10T03:03:19.892Z,100.00
2022-11-10T03:05:47.637Z,100.00
2022-11-10T03:08:15.214Z,100.00
2022-11-10T03:10:42.877Z,100.00
2022-11-10T03:13:11.814Z,100.00
2022-11-10T03:15:39.367Z,100.00
2022-11-10T03:18:07.088Z,100.00
2022-11-10T03:20:34.910Z,100.00
2022-11-10T03:23:03.754Z,100.00
2022-11-10T03:25:31.360Z,100.00
2022-11-10T03:27:58.932Z,100.00
2022-11-10T03:30:28.117Z,100.00
2022-11-10T03:32:55.723Z,100.00
2022-11-10T03:35:23.340Z,100.00
2022-11-10T03:37:50.906Z,100.00
2022-11-10T03:40:18.602Z,100.00
2022-11-10T03:42:46.835Z,100.00
2022-11-10T03:45:15.574Z,100.00
2022-11-10T03:47:49.789Z,100.00
2022-11-10T03:50:17.988Z,100.00
2022-11-10T03:52:46.470Z,100.00
2022-11-10T03:55:16.744Z,100.00
2022-11-10T03:57:44.564Z,100.00
2022-11-10T04:00:13.522Z,100.00
2022-11-10T04:02:41.124Z,100.00
2022-11-10T04:05:28.201Z,100.00
2022-11-10T04:08:17.032Z,100.00
2022-11-10T04:10:44.602Z,100.00
2022-11-10T04:13:30.435Z,100.00
2022-11-10T04:15:58.185Z,100.00
2022-11-10T04:18:25.863Z,100.00
2022-11-10T04:20:56.225Z,100.00
2022-11-10T04:23:28.077Z,100.00
2022-11-10T04:26:18.777Z,100.00
2022-11-10T04:28:47.276Z,100.00
2022-11-10T04:31:15.533Z,100.00
2022-11-10T04:33:43.182Z,100.00
2022-11-10T04:36:13.746Z,100.00
2022-11-10T04:38:41.713Z,100.00
2022-11-10T04:41:10.067Z,100.00
2022-11-10T04:43:37.970Z,100.00
2022-11-10T04:46:06.585Z,100.00
2022-11-10T04:48:35.656Z,100.00
2022-11-10T04:51:06.024Z,100.00
2022-11-10T04:53:35.003Z,100.00
2022-11-10T04:56:02.581Z,100.00
2022-11-10T04:58:30.153Z,100.00
2022-11-10T05:00:57.788Z,100.00
2022-11-10T05:03:26.514Z,100.00
2022-11-10T05:05:54.077Z,100.00
2022-11-10T05:08:21.653Z,100.00
2022-11-10T05:10:50.617Z,100.00
2022-11-10T05:13:18.167Z,100.00
2022-11-10T05:15:46.572Z,100.00
2022-11-10T05:18:14.102Z,100.00
2022-11-10T05:20:41.817Z,100.00
2022-11-10T05:23:26.983Z,100.00
2022-11-10T05:25:55.847Z,100.00
2022-11-10T05:28:23.415Z,100.00
2022-11-10T05:30:50.937Z,100.00
2022-11-10T05:33:18.669Z,100.00
2022-11-10T05:35:46.465Z,100.00
2022-11-10T05:38:14.096Z,100.00
2022-11-10T05:40:41.644Z,100.00
2022-11-10T05:43:10.712Z,100.00
2022-11-10T05:45:38.349Z,100.00
2022-11-10T05:48:06.186Z,100.00
2022-11-10T05:50:33.837Z,100.00
2022-11-10T05:53:01.434Z,100.00
2022-11-10T05:55:30.184Z,100.00
2022-11-10T05:57:58.335Z,100.00
2022-11-10T06:00:28.713Z,100.00
2022-11-10T06:03:04.182Z,100.00
2022-11-10T06:05:33.534Z,100.00
2022-11-10T06:08:01.412Z,100.00
2022-11-10T06:10:29.087Z,100.00
2022-11-10T06:12:56.793Z,100.00
2022-11-10T06:15:25.001Z,100.00
2022-11-10T06:17:54.570Z,100.00
2022-11-10T06:20:22.399Z,100.00
2022-11-10T06:23:01.145Z,100.00
2022-11-10T06:25:29.881Z,100.00
2022-11-10T06:27:57.866Z,100.00
2022-11-10T06:30:25.877Z,100.00
2022-11-10T06:32:54.852Z,100.00
2022-11-10T06:35:23.491Z,100.00
2022-11-10T06:38:00.921Z,100.00
2022-11-10T06:40:29.081Z,100.00
2022-11-10T06:42:56.925Z,100.00
2022-11-10T06:45:25.166Z,100.00
2022-11-10T06:48:02.400Z,100.00
2022-11-10T06:50:30.007Z,100.00
2022-11-10T06:52:58.160Z,100.00
2022-11-10T06:55:26.049Z,100.00
2022-11-10T06:57:54.219Z,100.00
2022-11-10T07:00:22.454Z,100.00
2022-11-10T07:02:50.101Z,100.00
2022-11-10T07:05:19.009Z,100.00
2022-11-10T07:07:46.563Z,100.00
2022-11-10T07:10:14.153Z,100.00
2022-11-10T07:12:41.699Z,100.00
2022-11-10T07:15:10.894Z,100.00
2022-11-10T07:17:40.669Z,100.00
2022-11-10T07:20:10.167Z,100.00
2022-11-10T07:22:39.036Z,100.00
2022-11-10T07:25:07.212Z,100.00
2022-11-10T07:27:34.735Z,100.00
2022-11-10T07:30:02.329Z,100.00
2022-11-10T07:32:29.897Z,100.00
2022-11-10T07:34:57.453Z,100.00
2022-11-10T07:37:25.172Z,100.00
2022-11-10T07:39:54.111Z,100.00
2022-11-10T07:42:21.685Z,100.00
2022-11-10T07:44:49.251Z,100.00
2022-11-10T07:47:16.786Z,100.00
2022-11-10T07:49:44.408Z,100.00
2022-11-10T07:52:11.937Z,100.00
2022-11-10T07:54:39.515Z,100.00
2022-11-10T07:57:08.402Z,100.00
2022-11-10T07:59:35.974Z,100.00
2022-11-10T08:02:03.586Z,100.00
2022-11-10T08:04:31.200Z,100.00
2022-11-10T08:06:59.651Z,100.00
2022-11-10T08:09:27.259Z,100.00
2022-11-10T08:11:54.925Z,100.00
2022-11-10T08:14:23.907Z,100.00
2022-11-10T08:16:51.572Z,100.00
2022-11-10T08:19:19.613Z,100.00
2022-11-10T08:21:47.251Z,100.00
2022-11-10T08:24:14.817Z,100.00
2022-11-10T08:26:42.459Z,100.00
2022-11-10T08:29:10.159Z,100.00
2022-11-10T08:31:39.211Z,100.00
2022-11-10T08:34:06.879Z,100.00
2022-11-10T08:36:34.442Z,100.00
2022-11-10T08:39:02.023Z,100.00
2022-11-10T08:41:29.618Z,100.00
2022-11-10T08:43:57.182Z,100.00
2022-11-10T08:46:24.725Z,100.00
2022-11-10T08:48:54.369Z,100.00
2022-11-10T08:51:22.269Z,100.00
2022-11-10T08:53:49.819Z,100.00
2022-11-10T08:56:17.496Z,100.00
2022-11-10T08:58:50.428Z,100.00
2022-11-10T09:01:21.190Z,100.00
2022-11-10T09:03:48.850Z,100.00
2022-11-10T09:06:17.757Z,100.00
2022-11-10T09:08:45.343Z,100.00
2022-11-10T09:11:12.887Z,100.00
2022-11-10T09:13:40.510Z,100.00
2022-11-10T09:16:08.572Z,100.00
2022-11-10T09:18:36.461Z,100.00
2022-11-10T09:21:06.646Z,100.00
2022-11-10T09:23:35.539Z,100.00
2022-11-10T09:26:03.840Z,100.00
2022-11-10T09:28:31.453Z,100.00
2022-11-10T09:30:59.066Z,100.00
2022-11-10T09:33:26.893Z,100.00
2022-11-10T09:35:58.512Z,100.00
2022-11-10T09:38:26.282Z,100.00
2022-11-10T09:41:02.691Z,100.00
2022-11-10T09:43:34.910Z,100.00
2022-11-10T09:46:07.548Z,100.00
2022-11-10T09:48:37.254Z,100.00
2022-11-10T09:51:07.051Z,100.00
2022-11-10T09:53:38.798Z,99.96
2022-11-10T09:56:08.549Z,100.00
2022-11-10T09:58:39.726Z,100.00
2022-11-10T10:01:27.531Z,100.00
2022-11-10T10:04:07.660Z,100.00
2022-11-10T10:07:04.860Z,99.85
2022-11-10T10:09:36.382Z,99.97
2022-11-10T10:12:19.947Z,99.33
2022-11-10T10:14:58.451Z,98.45
2022-11-10T10:17:29.368Z,98.36
2022-11-10T10:20:00.659Z,98.15
2022-11-10T10:22:46.400Z,97.91
2022-11-10T10:25:17.907Z,97.83
2022-11-10T10:27:48.337Z,97.25
2022-11-10T10:30:19.213Z,96.93
2022-11-10T10:32:46.919Z,96.11
2022-11-10T10:35:15.489Z,97.05
2022-11-10T10:37:46.612Z,95.56
2022-11-10T10:40:18.979Z,95.64
2022-11-10T10:42:48.653Z,94.69
2022-11-10T10:45:18.669Z,94.98
2022-11-10T10:47:47.772Z,94.49
2022-11-10T10:50:27.906Z,93.75
2022-11-10T10:53:10.012Z,93.06
2022-11-10T10:55:38.079Z,93.32
2022-11-10T10:58:19.993Z,92.80
2022-11-10T11:00:48.872Z,93.28
2022-11-10T11:03:25.949Z,91.30
2022-11-10T11:06:06.145Z,92.40
2022-11-10T11:08:33.876Z,91.83
2022-11-10T11:11:11.949Z,93.06
2022-11-10T11:13:40.893Z,92.28
2022-11-10T11:16:12.080Z,93.90
2022-11-10T11:18:40.969Z,94.32
2022-11-10T11:21:13.949Z,93.38
2022-11-10T11:24:04.899Z,94.00
2022-11-10T11:26:37.898Z,92.37
2022-11-10T11:29:18.561Z,91.54
2022-11-10T11:31:50.786Z,92.10
2022-11-10T11:34:21.834Z,91.38
2022-11-10T11:36:54.447Z,90.08
2022-11-10T11:39:31.979Z,90.79
2022-11-10T11:42:07.599Z,89.36
2022-11-10T11:44:45.894Z,88.37
2022-11-10T11:47:25.639Z,88.63
2022-11-10T11:50:00.448Z,88.79
2022-11-10T11:52:36.069Z,87.75
2022-11-10T11:55:15.724Z,89.02
2022-11-10T11:57:53.146Z,88.23
2022-11-10T12:00:23.195Z,87.35
2022-11-10T12:03:04.872Z,87.57
2022-11-10T12:05:37.612Z,88.06
2022-11-10T12:08:12.225Z,87.79
2022-11-10T12:10:46.835Z,86.68
2022-11-10T12:13:38.820Z,87.07
2022-11-10T12:16:15.497Z,87.63
2022-11-10T12:18:49.805Z,85.93
2022-11-10T12:21:25.436Z,86.17
2022-11-10T12:24:10.666Z,85.59
2022-11-10T12:26:42.840Z,86.42
2022-11-10T12:29:25.983Z,86.34
2022-11-10T12:31:56.959Z,86.67
2022-11-10T12:34:31.955Z,86.97
2022-11-10T12:37:03.065Z,87.27
2022-11-10T12:39:38.456Z,86.10
2022-11-10T12:42:07.184Z,85.64
2022-11-10T12:44:38.234Z,86.37
2022-11-10T12:47:12.497Z,86.53
2022-11-10T12:49:42.374Z,86.28
2022-11-10T12:52:12.937Z,86.43
2022-11-10T12:54:42.188Z,86.02
2022-11-10T12:57:13.539Z,86.52
2022-11-10T12:59:43.732Z,86.87
2022-11-10T13:02:25.915Z,86.12
2022-11-10T13:05:25.032Z,86.25
2022-11-10T13:08:15.449Z,84.96
2022-11-10T13:10:54.381Z,85.65
2022-11-10T13:13:22.658Z,85.45
2022-11-10T13:15:55.178Z,85.46
2022-11-10T13:18:54.041Z,85.31
2022-11-10T13:22:06.044Z,85.01
2022-11-10T13:24:34.595Z,85.00
2022-11-10T13:27:02.729Z,84.28
2022-11-10T13:29:34.841Z,85.04
2022-11-10T13:32:24.178Z,85.02
2022-11-10T13:34:53.925Z,85.33
2022-11-10T13:37:51.269Z,84.97
2022-11-10T13:40:29.470Z,86.22
2022-11-10T13:43:25.903Z,86.21
2022-11-10T13:46:06.271Z,86.08
2022-11-10T13:48:47.039Z,85.32
2022-11-10T13:51:24.989Z,86.32
2022-11-10T13:54:13.765Z,86.53
2022-11-10T13:57:01.932Z,86.85
2022-11-10T13:59:32.397Z,87.42
2022-11-10T14:02:45.050Z,88.22
2022-11-10T14:06:01.244Z,87.10
2022-11-10T14:08:36.115Z,87.41
2022-11-10T14:11:05.468Z,87.66
2022-11-10T14:13:39.665Z,86.84
2022-11-10T14:16:16.674Z,87.00
2022-11-10T14:18:49.495Z,86.59
2022-11-10T14:21:24.483Z,86.76
2022-11-10T14:23:57.179Z,87.43
2022-11-10T14:26:29.287Z,88.11
2022-11-10T14:28:56.969Z,87.96
2022-11-10T14:31:26.086Z,87.69
2022-11-10T14:33:55.602Z,88.07
2022-11-10T14:36:23.599Z,87.78
2022-11-10T14:38:53.523Z,89.21
2022-11-10T14:41:23.167Z,89.08
2022-11-10T14:44:12.013Z,89.76
2022-11-10T14:46:39.649Z,90.91
2022-11-10T14:49:07.350Z,91.31
2022-11-10T14:51:35.915Z,91.85
2022-11-10T14:54:04.879Z,92.39
2022-11-10T14:56:36.441Z,92.82
2022-11-10T14:59:05.811Z,93.04
2022-11-10T15:01:36.777Z,93.87
2022-11-10T15:04:06.592Z,94.08
2022-11-10T15:06:34.710Z,94.95
2022-11-10T15:09:14.185Z,95.00
2022-11-10T15:11:48.798Z,95.20
2022-11-10T15:14:46.699Z,95.68
2022-11-10T15:17:16.102Z,95.56
2022-11-10T15:19:54.566Z,95.46
2022-11-10T15:22:24.327Z,96.20
2022-11-10T15:24:53.491Z,97.06
2022-11-10T15:27:26.281Z,97.36
2022-11-10T15:29:55.467Z,98.17
2022-11-10T15:32:24.907Z,97.52
2022-11-10T15:34:53.082Z,98.57
2022-11-10T15:37:30.210Z,99.01
2022-11-10T15:40:34.257Z,98.31
2022-11-10T15:43:13.331Z,98.48
2022-11-10T15:45:41.510Z,99.21
2022-11-10T15:48:12.474Z,99.23
2022-11-10T15:50:40.656Z,99.36
2022-11-10T15:53:14.911Z,99.55
2022-11-10T15:55:45.285Z,100.00
2022-11-10T15:58:14.888Z,99.79
2022-11-10T16:00:42.603Z,100.00
2022-11-10T16:03:14.472Z,100.00
2022-11-10T16:05:42.453Z,100.00
2022-11-10T16:08:14.153Z,100.00
2022-11-10T16:10:45.579Z,100.00
2022-11-10T16:13:15.940Z,100.00
2022-11-10T16:15:45.315Z,100.00
2022-11-10T16:18:16.310Z,100.00
2022-11-10T16:20:44.526Z,100.00
2022-11-10T16:23:12.796Z,100.00
2022-11-10T16:25:41.548Z,100.00
2022-11-10T16:28:12.319Z,100.00
2022-11-10T16:30:40.056Z,100.00
2022-11-10T16:33:07.653Z,100.00
2022-11-10T16:35:35.297Z,100.00
2022-11-10T16:38:03.440Z,100.00
2022-11-10T16:40:31.112Z,100.00
2022-11-10T16:42:58.795Z,100.00
2022-11-10T16:45:30.122Z,100.00
2022-11-10T16:47:58.630Z,100.00
2022-11-10T16:50:34.095Z,100.00
2022-11-10T16:53:03.251Z,100.00
2022-11-10T16:55:31.092Z,100.00
2022-11-10T16:57:58.753Z,100.00
2022-11-10T17:00:27.726Z,100.00
2022-11-10T17:03:00.119Z,100.00
2022-11-10T17:05:27.764Z,100.00
2022-11-10T17:07:55.959Z,100.00
2022-11-10T17:10:23.922Z,100.00
2022-11-10T17:12:51.606Z,100.00
2022-11-10T17:15:19.894Z,100.00
2022-11-10T17:17:51.394Z,100.00
2022-11-10T17:20:21.099Z,100.00
2022-11-10T17:22:49.682Z,100.00
2022-11-10T17:25:24.544Z,100.00
2022-11-10T17:27:52.126Z,100.00
2022-11-10T17:30:20.041Z,100.00
2022-11-10T17:33:05.678Z,100.00
2022-11-10T17:35:39.203Z,100.00
2022-11-10T17:38:12.883Z,100.00
2022-11-10T17:40:41.955Z,100.00
2022-11-10T17:43:11.518Z,100.00
2022-11-10T17:45:40.071Z,100.00
2022-11-10T17:48:09.182Z,100.00
2022-11-10T17:50:37.592Z,100.00
2022-11-10T17:53:13.917Z,100.00
2022-11-10T17:55:42.281Z,100.00
2022-11-10T17:58:10.219Z,100.00
2022-11-10T18:00:38.022Z,100.00
2022-11-10T18:03:08.538Z,100.00
2022-11-10T18:05:39.398Z,100.00
2022-11-10T18:08:06.925Z,100.00
2022-11-10T18:10:34.467Z,100.00
2022-11-10T18:13:02.092Z,100.00
2022-11-10T18:15:29.672Z,100.00
2022-11-10T18:18:00.857Z,100.00
2022-11-10T18:20:28.855Z,100.00
2022-11-10T18:22:57.809Z,100.00
2022-11-10T18:25:25.360Z,100.00
2022-11-10T18:27:52.922Z,100.00
2022-11-10T18:30:20.552Z,100.00
2022-11-10T18:32:48.137Z,100.00
2022-11-10T18:35:17.765Z,100.00
2022-11-10T18:37:45.382Z,100.00
2022-11-10T18:40:16.108Z,100.00
2022-11-10T18:42:43.657Z,100.00
2022-11-10T18:45:12.895Z,100.00
2022-11-10T18:47:40.664Z,100.00
2022-11-10T18:50:09.801Z,100.00
2022-11-10T18:52:37.487Z,100.00
2022-11-10T18:55:05.426Z,100.00
2022-11-10T18:57:34.381Z,100.00
2022-11-10T19:00:01.992Z,100.00
2022-11-10T19:02:29.586Z,100.00
2022-11-10T19:04:57.263Z,100.00
2022-11-10T19:07:24.827Z,100.00
2022-11-10T19:09:52.814Z,100.00
2022-11-10T19:12:26.367Z,100.00
2022-11-10T19:14:55.817Z,100.00
2022-11-10T19:17:23.663Z,100.00
2022-11-10T19:19:56.187Z,100.00
2022-11-10T19:22:24.421Z,100.00
2022-11-10T19:25:08.798Z,100.00
2022-11-10T19:27:37.064Z,100.00
2022-11-10T19:30:07.196Z,100.00
2022-11-10T19:32:34.822Z,100.00
2022-11-10T19:35:03.725Z,100.00
2022-11-10T19:37:34.868Z,100.00
2022-11-10T19:40:02.685Z,100.00
2022-11-10T19:42:30.591Z,100.00
2022-11-10T19:44:58.798Z,100.00
2022-11-10T19:47:27.939Z,100.00
2022-11-10T19:49:55.632Z,100.00
2022-11-10T19:52:23.262Z,100.00
2022-11-10T19:54:50.840Z,100.00
2022-11-10T19:57:18.501Z,100.00
2022-11-10T19:59:46.152Z,100.00
2022-11-10T20:02:13.830Z,100.00
2022-11-10T20:04:56.702Z,100.00
2022-11-10T20:07:41.945Z,100.00
2022-11-10T20:10:10.683Z,100.00
2022-11-10T20:12:38.267Z,100.00
2022-11-10T20:15:07.817Z,100.00
2022-11-10T20:17:35.436Z,100.00
2022-11-10T20:20:05.047Z,100.00
2022-11-10T20:22:32.741Z,100.00
2022-11-10T20:25:00.349Z,100.00
2022-11-10T20:27:27.992Z,100.00
2022-11-10T20:29:55.609Z,100.00
2022-11-10T20:32:23.214Z,100.00
2022-11-10T20:34:50.804Z,100.00
2022-11-10T20:37:19.746Z,100.00
2022-11-10T20:39:47.339Z,100.00
2022-11-10T20:42:15.091Z,100.00
2022-11-10T20:44:42.686Z,100.00
2022-11-10T20:47:10.329Z,100.00
2022-11-10T20:49:38.085Z,100.00
2022-11-10T20:52:06.072Z,100.00
2022-11-10T20:54:34.991Z,100.00
2022-11-10T20:57:02.955Z,100.00
2022-11-10T20:59:30.570Z,100.00
2022-11-10T21:01:58.207Z,100.00
2022-11-10T21:04:30.027Z,100.00
2022-11-10T21:06:57.848Z,100.00
2022-11-10T21:09:26.915Z,100.00
2022-11-10T21:12:13.726Z,100.00
2022-11-10T21:14:41.297Z,100.00
2022-11-10T21:17:08.865Z,100.00
2022-11-10T21:19:36.640Z,100.00
2022-11-10T21:22:04.282Z,100.00
2022-11-10T21:24:31.861Z,100.00
2022-11-10T21:27:00.812Z,100.00
2022-11-10T21:29:28.328Z,100.00
2022-11-10T21:31:55.884Z,100.00
2022-11-10T21:34:23.419Z,100.00
2022-11-10T21:36:51.019Z,100.00
2022-11-10T21:39:18.614Z,100.00
2022-11-10T21:41:46.248Z,100.00
2022-11-10T21:44:15.163Z,100.00
2022-11-10T21:46:42.833Z,100.00
2022-11-10T21:49:10.401Z,100.00
2022-11-10T21:51:37.992Z,100.00
2022-11-10T21:54:05.738Z,100.00
2022-11-10T21:56:33.323Z,100.00
2022-11-10T21:59:00.997Z,100.00
2022-11-10T22:01:29.948Z,100.00
2022-11-10T22:03:57.519Z,100.00
2022-11-10T22:06:45.125Z,100.00
2022-11-10T22:09:12.691Z,100.00
2022-11-10T22:11:57.747Z,100.00
2022-11-10T22:14:43.140Z,100.00
2022-11-10T22:17:34.260Z,100.00
2022-11-10T22:20:01.904Z,100.00
2022-11-10T22:22:29.486Z,100.00
2022-11-10T22:24:57.327Z,100.00
2022-11-10T22:27:24.864Z,100.00
2022-11-10T22:29:52.407Z,100.00
2022-11-10T22:32:21.370Z,100.00
2022-11-10T22:34:48.975Z,100.00
2022-11-10T22:37:16.500Z,100.00
2022-11-10T22:40:01.835Z,100.00
2022-11-10T22:42:47.130Z,100.00
2022-11-10T22:45:14.734Z,100.00
2022-11-10T22:48:06.728Z,100.00
2022-11-10T22:50:34.276Z,100.00
2022-11-10T22:53:01.820Z,100.00
2022-11-10T22:55:29.391Z,100.00
2022-11-10T22:57:57.071Z,100.00
2022-11-10T23:00:24.639Z,100.00
2022-11-10T23:02:54.127Z,100.00
2022-11-10T23:05:21.873Z,100.00
2022-11-10T23:07:49.579Z,100.00
2022-11-10T23:10:17.472Z,100.00
2022-11-10T23:12:45.150Z,100.00
2022-11-10T23:15:12.740Z,100.00
2022-11-10T23:17:40.286Z,100.00
2022-11-10T23:20:10.993Z,100.00
2022-11-10T23:22:38.565Z,100.00
2022-11-10T23:25:07.328Z,100.00
2022-11-10T23:27:35.275Z,100.00
2022-11-10T23:30:02.983Z,100.00
2022-11-10T23:32:30.618Z,100.00
2022-11-10T23:34:58.175Z,100.00
2022-11-10T23:37:27.104Z,100.00
2022-11-10T23:39:54.642Z,100.00
2022-11-10T23:42:22.263Z,100.00
2022-11-10T23:44:49.817Z,100.00
2022-11-10T23:47:17.513Z,100.00
2022-11-10T23:49:45.100Z,100.00
2022-11-10T23:52:12.662Z,100.00
2022-11-10T23:54:41.584Z,100.00
2022-11-10T23:57:09.119Z,100.00
2022-11-10T23:59:36.839Z,100.00
